Time;durP1;ratioP1;P1;durP2;ratioP2;P2;SDS_P1;SDS_P2;PMS_P1;PMS_P2;Temp;Humidity;BMP_temperature;BMP_pressure;BME280_temperature;BME280_humidity;BME280_pressure;Samples;Min_cycle;Max_cycle;Signal;HPM_P1;HPM_P2
2022/10/14 00:00:53;;;;;;;18.35;13.32;;;;;;;;;;4898229;29;20043;-64
2022/10/14 00:03:19;;;;;;;16.02;13.60;;;;;;;;;;4896756;29;20044;-64
2022/10/14 00:05:47;;;;;;;19.70;13.00;;;;;;;;;;4897846;29;20060;-64
2022/10/14 00:08:13;;;;;;;19.65;13.70;;;;;;;;;;4896224;29;20092;-63
2022/10/14 00:10:40;;;;;;;20.80;13.00;;;;;;;;;;4881643;29;20045;-65
2022/10/14 00:13:06;;;;;;;17.42;13.40;;;;;;;;;;4894854;29;20053;-63
2022/10/14 00:15:37;;;;;;;19.02;13.95;;;;;;;;;;4892723;29;20041;-64
2022/10/14 00:18:03;;;;;;;21.45;14.27;;;;;;;;;;4888164;29;20053;-63
2022/10/14 00:20:29;;;;;;;19.58;14.15;;;;;;;;;;4885119;29;20633;-64
2022/10/14 00:22:56;;;;;;;20.33;14.32;;;;;;;;;;4879944;29;20536;-64
2022/10/14 00:25:24;;;;;;;23.95;15.45;;;;;;;;;;4864779;29;20083;-63
2022/10/14 00:27:51;;;;;;;20.42;14.65;;;;;;;;;;4884418;29;20077;-63
2022/10/14 00:30:17;;;;;;;22.85;15.20;;;;;;;;;;4883572;29;20180;-64
2022/10/14 00:32:44;;;;;;;20.23;14.65;;;;;;;;;;4883797;29;20060;-65
2022/10/14 00:35:11;;;;;;;22.00;14.30;;;;;;;;;;4888552;29;20052;-64
2022/10/14 00:37:38;;;;;;;22.35;14.35;;;;;;;;;;4887248;29;20513;-66
2022/10/14 00:40:04;;;;;;;21.35;14.93;;;;;;;;;;4891666;29;20049;-65
2022/10/14 00:42:32;;;;;;;21.05;14.88;;;;;;;;;;4875716;29;20045;-64
2022/10/14 00:45:00;;;;;;;24.77;14.95;;;;;;;;;;4890602;29;20512;-62
2022/10/14 00:47:26;;;;;;;19.17;14.38;;;;;;;;;;4868214;29;20409;-64
2022/10/14 00:49:53;;;;;;;24.67;14.40;;;;;;;;;;4882014;29;20100;-63
2022/10/14 00:52:21;;;;;;;21.00;14.93;;;;;;;;;;4881673;29;20059;-63
2022/10/14 00:55:03;;;;;;;24.38;15.20;;;;;;;;;;4881974;29;20060;-62
2022/10/14 00:57:30;;;;;;;24.25;14.57;;;;;;;;;;4880484;29;20041;-64
2022/10/14 01:00:00;;;;;;;20.88;14.25;;;;;;;;;;4881495;29;20076;-63
2022/10/14 01:02:27;;;;;;;21.77;14.82;;;;;;;;;;4880061;29;20049;-62
2022/10/14 01:04:53;;;;;;;22.95;14.38;;;;;;;;;;4880457;29;20049;-61
2022/10/14 01:07:38;;;;;;;19.70;13.82;;;;;;;;;;4864133;29;20191;-63
2022/10/14 01:10:12;;;;;;;20.55;14.77;;;;;;;;;;4878301;29;20057;-63
2022/10/14 01:12:49;;;;;;;19.73;14.50;;;;;;;;;;4877661;29;20549;-63
2022/10/14 01:15:34;;;;;;;18.58;14.95;;;;;;;;;;4879042;29;20502;-63
2022/10/14 01:18:04;;;;;;;21.67;14.32;;;;;;;;;;4895377;29;20051;-62
2022/10/14 01:20:49;;;;;;;21.63;14.65;;;;;;;;;;4879559;29;20059;-63
2022/10/14 01:23:40;;;;;;;18.83;14.68;;;;;;;;;;4879463;29;20048;-63
2022/10/14 01:26:25;;;;;;;19.60;14.95;;;;;;;;;;4881942;29;20394;-65
2022/10/14 01:29:10;;;;;;;19.05;14.07;;;;;;;;;;4881827;29;20075;-63
2022/10/14 01:31:40;;;;;;;24.92;14.75;;;;;;;;;;4878463;29;20087;-63
2022/10/14 01:34:09;;;;;;;19.05;13.98;;;;;;;;;;4877400;29;20111;-64
2022/10/14 01:36:45;;;;;;;25.52;16.05;;;;;;;;;;4877748;29;20083;-66
2022/10/14 01:39:16;;;;;;;24.33;16.20;;;;;;;;;;4862378;29;20067;-63
2022/10/14 01:41:48;;;;;;;24.05;14.68;;;;;;;;;;4877910;29;20554;-63
2022/10/14 01:44:16;;;;;;;27.17;16.67;;;;;;;;;;4877887;29;20045;-63
2022/10/14 01:46:45;;;;;;;22.35;16.02;;;;;;;;;;4878291;29;20069;-63
2022/10/14 01:49:14;;;;;;;22.02;16.40;;;;;;;;;;4878051;29;20045;-64
2022/10/14 01:51:51;;;;;;;25.65;16.33;;;;;;;;;;4877514;29;20418;-64
2022/10/14 01:54:23;;;;;;;24.10;15.50;;;;;;;;;;4876811;29;20065;-64
2022/10/14 01:56:53;;;;;;;27.65;15.90;;;;;;;;;;4920547;23;20070;-62
2022/10/14 01:59:21;;;;;;;22.30;15.90;;;;;;;;;;4899299;29;20059;-61
2022/10/14 02:01:47;;;;;;;27.00;16.45;;;;;;;;;;4914683;29;20609;-62
2022/10/14 02:04:15;;;;;;;24.33;16.02;;;;;;;;;;4914031;29;20063;-61
2022/10/14 02:06:46;;;;;;;26.80;16.92;;;;;;;;;;4903738;29;20053;-64
2022/10/14 02:09:21;;;;;;;22.90;16.73;;;;;;;;;;4879930;29;20048;-61
2022/10/14 02:11:54;;;;;;;22.95;15.73;;;;;;;;;;4897004;29;20045;-61
2022/10/14 02:14:23;;;;;;;24.77;16.40;;;;;;;;;;4895151;29;20100;-61
2022/10/14 02:17:00;;;;;;;22.83;15.63;;;;;;;;;;4895561;29;20295;-61
2022/10/14 02:19:32;;;;;;;24.63;15.95;;;;;;;;;;4895547;29;20077;-62
2022/10/14 02:22:00;;;;;;;23.30;16.08;;;;;;;;;;4895373;29;20565;-61
2022/10/14 02:24:31;;;;;;;23.00;15.60;;;;;;;;;;4895826;29;20048;-61
2022/10/14 02:27:00;;;;;;;23.38;15.60;;;;;;;;;;4895427;29;20080;-62
2022/10/14 02:29:28;;;;;;;24.98;15.60;;;;;;;;;;4895294;29;20096;-61
2022/10/14 02:31:55;;;;;;;23.60;15.95;;;;;;;;;;4896522;29;20048;-61
2022/10/14 02:34:24;;;;;;;29.42;17.08;;;;;;;;;;4896746;29;20053;-62
2022/10/14 02:36:51;;;;;;;21.52;15.05;;;;;;;;;;4898759;29;20041;-62
2022/10/14 02:39:21;;;;;;;25.50;16.02;;;;;;;;;;4898829;29;20052;-62
2022/10/14 02:41:47;;;;;;;26.92;15.57;;;;;;;;;;4899193;29;20127;-61
2022/10/14 02:44:13;;;;;;;23.13;15.23;;;;;;;;;;4899695;29;20497;-62
2022/10/14 02:46:41;;;;;;;23.83;15.40;;;;;;;;;;4899001;29;20060;-62
2022/10/14 02:49:08;;;;;;;23.52;14.25;;;;;;;;;;4899466;29;20056;-61
2022/10/14 02:51:35;;;;;;;21.05;15.27;;;;;;;;;;4900558;29;20718;-62
2022/10/14 02:54:01;;;;;;;20.50;14.63;;;;;;;;;;4899027;29;20080;-61
2022/10/14 02:56:27;;;;;;;23.20;14.30;;;;;;;;;;4899408;29;20087;-61
2022/10/14 02:58:54;;;;;;;20.50;14.23;;;;;;;;;;4902287;29;20040;-61
2022/10/14 03:01:21;;;;;;;23.30;14.57;;;;;;;;;;4901475;29;20036;-61
2022/10/14 03:03:48;;;;;;;19.75;14.05;;;;;;;;;;4898712;29;20433;-61
2022/10/14 03:06:15;;;;;;;21.48;14.07;;;;;;;;;;4899717;29;20048;-61
2022/10/14 03:08:42;;;;;;;22.45;14.18;;;;;;;;;;4899750;29;20048;-61
2022/10/14 03:11:09;;;;;;;20.05;14.15;;;;;;;;;;4899181;29;20093;-61
2022/10/14 03:13:36;;;;;;;24.55;14.38;;;;;;;;;;4897722;29;20131;-61
2022/10/14 03:16:03;;;;;;;22.88;14.90;;;;;;;;;;4898711;29;20049;-60
2022/10/14 03:18:31;;;;;;;18.20;13.85;;;;;;;;;;4899319;29;20066;-61
2022/10/14 03:21:06;;;;;;;20.75;14.10;;;;;;;;;;4899326;29;20049;-60
2022/10/14 03:23:37;;;;;;;26.75;14.98;;;;;;;;;;4898266;29;20049;-61
2022/10/14 03:26:03;;;;;;;18.98;13.75;;;;;;;;;;4898989;29;20052;-61
2022/10/14 03:28:36;;;;;;;24.58;14.52;;;;;;;;;;4899600;29;20143;-61
2022/10/14 03:31:11;;;;;;;20.00;13.07;;;;;;;;;;4899083;29;20071;-61
2022/10/14 03:34:05;;;;;;;19.67;13.75;;;;;;;;;;4898601;29;20569;-61
2022/10/14 03:36:33;;;;;;;21.38;13.45;;;;;;;;;;4898872;29;20049;-61
2022/10/14 03:39:00;;;;;;;22.23;14.70;;;;;;;;;;4899916;29;20502;-61
2022/10/14 03:41:38;;;;;;;23.13;14.13;;;;;;;;;;4898603;29;20526;-61
2022/10/14 03:44:06;;;;;;;20.17;13.40;;;;;;;;;;4898637;29;20045;-60
2022/10/14 03:46:35;;;;;;;21.42;14.75;;;;;;;;;;4898162;29;20528;-60
2022/10/14 03:49:02;;;;;;;21.85;14.82;;;;;;;;;;4883592;29;20052;-61
2022/10/14 03:51:28;;;;;;;19.60;13.65;;;;;;;;;;4898988;29;20389;-61
2022/10/14 03:54:06;;;;;;;21.00;13.43;;;;;;;;;;4883937;29;20052;-61
2022/10/14 03:56:34;;;;;;;19.75;14.00;;;;;;;;;;4897587;29;20136;-61
2022/10/14 03:59:01;;;;;;;20.55;13.85;;;;;;;;;;4897593;29;20500;-61
2022/10/14 04:01:27;;;;;;;22.48;14.75;;;;;;;;;;5356683;23;20995;-61
2022/10/14 04:04:14;;;;;;;27.02;15.27;;;;;;;;;;4900133;29;20052;-62
2022/10/14 04:06:40;;;;;;;22.77;15.10;;;;;;;;;;4884304;29;20144;-61
2022/10/14 04:09:07;;;;;;;21.38;15.80;;;;;;;;;;4899285;29;20065;-62
2022/10/14 04:11:37;;;;;;;24.42;14.95;;;;;;;;;;4898968;29;20044;-63
2022/10/14 04:14:08;;;;;;;22.63;14.77;;;;;;;;;;4898544;29;20144;-62
2022/10/14 04:16:42;;;;;;;23.88;15.63;;;;;;;;;;4898944;29;20102;-61
2022/10/14 04:19:15;;;;;;;25.23;15.00;;;;;;;;;;4884243;29;20139;-61
2022/10/14 04:21:42;;;;;;;30.25;16.45;;;;;;;;;;4898114;29;20040;-61
2022/10/14 04:24:09;;;;;;;22.95;15.30;;;;;;;;;;4896811;29;20131;-61
2022/10/14 04:26:41;;;;;;;20.63;14.95;;;;;;;;;;4897311;29;20064;-61
2022/10/14 04:29:14;;;;;;;22.38;14.80;;;;;;;;;;4897423;29;20664;-61
2022/10/14 04:31:50;;;;;;;22.67;14.80;;;;;;;;;;4897132;29;20139;-61
2022/10/14 04:34:17;;;;;;;23.40;14.50;;;;;;;;;;4896107;29;20136;-61
2022/10/14 04:36:44;;;;;;;22.05;15.05;;;;;;;;;;4897023;29;20155;-61
2022/10/14 04:39:21;;;;;;;20.20;13.50;;;;;;;;;;4896711;29;20071;-60
2022/10/14 04:41:48;;;;;;;19.73;14.57;;;;;;;;;;4896761;29;20040;-61
2022/10/14 04:44:17;;;;;;;23.83;14.48;;;;;;;;;;4881379;29;20044;-61
2022/10/14 04:46:48;;;;;;;21.98;14.13;;;;;;;;;;4896898;29;20049;-61
2022/10/14 04:49:16;;;;;;;21.20;13.77;;;;;;;;;;4881419;29;20081;-61
2022/10/14 04:51:51;;;;;;;20.05;13.35;;;;;;;;;;4896632;29;20062;-61
2022/10/14 04:54:27;;;;;;;21.77;13.07;;;;;;;;;;4896341;29;20048;-61
2022/10/14 04:56:56;;;;;;;16.25;12.48;;;;;;;;;;4895888;29;20049;-60
2022/10/14 04:59:23;;;;;;;20.70;11.90;;;;;;;;;;4897736;29;20036;-61
2022/10/14 05:01:57;;;;;;;17.42;12.88;;;;;;;;;;4881406;29;20057;-61
2022/10/14 05:04:33;;;;;;;19.85;12.77;;;;;;;;;;4896161;29;20054;-61
2022/10/14 05:07:00;;;;;;;17.85;11.27;;;;;;;;;;4897097;29;20577;-61
2022/10/14 05:09:27;;;;;;;14.75;11.27;;;;;;;;;;4896808;29;20119;-62
2022/10/14 05:11:55;;;;;;;17.95;12.15;;;;;;;;;;4898023;29;20128;-63
2022/10/14 05:14:29;;;;;;;18.55;11.43;;;;;;;;;;4896627;29;20506;-62
2022/10/14 05:17:07;;;;;;;18.25;10.95;;;;;;;;;;4896636;29;20059;-62
2022/10/14 05:19:34;;;;;;;19.48;11.60;;;;;;;;;;4880899;29;20041;-61
2022/10/14 05:22:00;;;;;;;15.40;10.80;;;;;;;;;;4895932;29;20041;-62
2022/10/14 05:24:33;;;;;;;17.67;11.00;;;;;;;;;;4896614;29;20052;-61
2022/10/14 05:27:01;;;;;;;15.98;10.15;;;;;;;;;;4896269;29;20148;-62
2022/10/14 05:29:29;;;;;;;12.85;9.85;;;;;;;;;;4896332;29;20063;-61
2022/10/14 05:31:55;;;;;;;11.38;8.88;;;;;;;;;;4897331;29;20052;-62
2022/10/14 05:34:36;;;;;;;12.65;10.00;;;;;;;;;;4896222;29;20048;-61
2022/10/14 05:37:06;;;;;;;15.10;9.93;;;;;;;;;;4895888;29;20076;-62
2022/10/14 05:39:40;;;;;;;13.43;10.20;;;;;;;;;;4881080;29;20053;-62
2022/10/14 05:42:06;;;;;;;15.68;8.93;;;;;;;;;;4895148;29;20059;-62
2022/10/14 05:44:33;;;;;;;13.55;9.55;;;;;;;;;;4896124;29;20051;-62
2022/10/14 05:47:01;;;;;;;13.35;8.98;;;;;;;;;;4896163;29;20049;-62
2022/10/14 05:49:27;;;;;;;17.90;9.80;;;;;;;;;;4896284;29;20068;-62
2022/10/14 05:51:56;;;;;;;24.77;11.10;;;;;;;;;;4895765;29;20075;-63
2022/10/14 05:54:22;;;;;;;19.27;11.10;;;;;;;;;;4895573;29;20056;-62
2022/10/14 05:56:51;;;;;;;18.30;11.25;;;;;;;;;;4895706;29;20049;-62
2022/10/14 05:59:18;;;;;;;16.10;10.93;;;;;;;;;;4880394;29;20681;-62
2022/10/14 06:01:45;;;;;;;16.60;11.32;;;;;;;;;;4895613;29;20053;-62
2022/10/14 06:04:16;;;;;;;22.58;11.57;;;;;;;;;;4896340;29;20048;-61
2022/10/14 06:06:42;;;;;;;18.10;11.90;;;;;;;;;;4897243;29;20044;-63
2022/10/14 06:09:09;;;;;;;17.10;11.63;;;;;;;;;;4897166;29;20044;-63
2022/10/14 06:11:37;;;;;;;17.15;11.80;;;;;;;;;;4899377;29;20080;-62
2022/10/14 06:14:04;;;;;;;12.13;9.70;;;;;;;;;;4899053;29;20045;-62
2022/10/14 06:16:31;;;;;;;14.30;9.65;;;;;;;;;;4900741;29;20056;-62
2022/10/14 06:19:02;;;;;;;13.02;9.65;;;;;;;;;;4899626;29;20044;-62
2022/10/14 06:21:29;;;;;;;15.90;10.82;;;;;;;;;;4899408;29;20044;-62
2022/10/14 06:23:55;;;;;;;14.85;9.18;;;;;;;;;;4900447;29;20391;-60
2022/10/14 06:26:22;;;;;;;9.88;8.88;;;;;;;;;;4899522;29;20056;-61
2022/10/14 06:28:48;;;;;;;14.35;9.15;;;;;;;;;;4899247;29;20052;-61
2022/10/14 06:31:15;;;;;;;11.98;9.50;;;;;;;;;;4899732;29;20048;-62
2022/10/14 06:33:42;;;;;;;14.15;8.48;;;;;;;;;;4899127;29;20059;-64
2022/10/14 06:36:09;;;;;;;13.27;7.63;;;;;;;;;;4899169;29;20108;-62
2022/10/14 06:38:36;;;;;;;10.38;8.13;;;;;;;;;;4899339;29;20044;-61
2022/10/14 06:41:02;;;;;;;13.32;8.50;;;;;;;;;;4900518;29;20059;-62
2022/10/14 06:43:29;;;;;;;12.90;8.50;;;;;;;;;;4898952;29;20049;-62
2022/10/14 06:45:55;;;;;;;14.18;8.55;;;;;;;;;;4898781;29;20104;-61
2022/10/14 06:48:22;;;;;;;15.77;9.02;;;;;;;;;;4899103;29;20045;-61
2022/10/14 06:50:48;;;;;;;11.90;9.05;;;;;;;;;;4900189;29;20063;-61
2022/10/14 06:53:14;;;;;;;11.63;8.23;;;;;;;;;;4899483;29;20071;-61
2022/10/14 06:55:41;;;;;;;12.25;8.77;;;;;;;;;;4900664;29;20489;-61
2022/10/14 06:58:07;;;;;;;10.23;8.25;;;;;;;;;;4900386;29;20045;-61
2022/10/14 07:00:34;;;;;;;10.68;8.23;;;;;;;;;;4901730;29;20055;-61
2022/10/14 07:03:00;;;;;;;13.10;8.40;;;;;;;;;;4883510;29;20045;-61
2022/10/14 07:05:27;;;;;;;11.95;8.70;;;;;;;;;;4901464;29;20119;-61
2022/10/14 07:07:53;;;;;;;11.10;8.68;;;;;;;;;;4884841;29;20048;-61
2022/10/14 07:10:20;;;;;;;13.93;9.38;;;;;;;;;;4901125;29;20045;-60
2022/10/14 07:12:46;;;;;;;13.10;9.23;;;;;;;;;;4900574;29;20079;-60
2022/10/14 07:15:13;;;;;;;14.00;9.13;;;;;;;;;;4900854;29;20052;-60
2022/10/14 07:17:39;;;;;;;12.80;8.43;;;;;;;;;;4899629;29;20049;-61
2022/10/14 07:20:06;;;;;;;13.40;7.45;;;;;;;;;;4900327;29;20047;-61
2022/10/14 07:22:35;;;;;;;14.50;8.60;;;;;;;;;;4899628;29;20045;-60
2022/10/14 07:25:04;;;;;;;12.60;7.60;;;;;;;;;;4899522;29;20093;-61
2022/10/14 07:27:31;;;;;;;14.75;8.68;;;;;;;;;;4900244;29;20080;-61
2022/10/14 07:29:57;;;;;;;10.77;8.50;;;;;;;;;;4899937;29;20456;-61
2022/10/14 07:32:23;;;;;;;12.50;7.75;;;;;;;;;;4897569;29;20048;-61
2022/10/14 07:34:50;;;;;;;13.02;7.60;;;;;;;;;;4897955;29;20048;-61
2022/10/14 07:37:16;;;;;;;10.43;7.13;;;;;;;;;;4898065;29;20083;-61
2022/10/14 07:39:43;;;;;;;11.52;7.50;;;;;;;;;;4897703;29;20052;-61
2022/10/14 07:42:09;;;;;;;9.88;7.55;;;;;;;;;;4897438;29;20084;-60
2022/10/14 07:44:38;;;;;;;10.02;7.72;;;;;;;;;;4898702;29;20051;-61
2022/10/14 07:47:05;;;;;;;11.88;7.22;;;;;;;;;;4897962;29;20048;-61
2022/10/14 07:49:32;;;;;;;11.20;7.28;;;;;;;;;;4898296;29;20120;-61
2022/10/14 07:51:58;;;;;;;9.40;7.13;;;;;;;;;;4898679;29;20064;-62
2022/10/14 07:54:25;;;;;;;11.82;7.97;;;;;;;;;;4897669;29;20044;-60
2022/10/14 07:56:52;;;;;;;11.65;7.60;;;;;;;;;;4897780;29;20104;-62
2022/10/14 07:59:19;;;;;;;8.23;6.53;;;;;;;;;;4897842;29;20048;-62
2022/10/14 08:01:46;;;;;;;7.40;5.85;;;;;;;;;;4897590;29;20466;-60
2022/10/14 08:04:12;;;;;;;8.25;5.68;;;;;;;;;;4897414;29;20079;-61
2022/10/14 08:06:39;;;;;;;10.43;5.95;;;;;;;;;;4898900;29;20385;-61
2022/10/14 08:09:06;;;;;;;7.63;5.55;;;;;;;;;;4882281;29;20108;-62
2022/10/14 08:11:32;;;;;;;9.63;5.88;;;;;;;;;;4897994;29;20065;-62
2022/10/14 08:13:59;;;;;;;7.60;5.30;;;;;;;;;;4897447;29;20560;-62
2022/10/14 08:16:30;;;;;;;7.35;5.63;;;;;;;;;;4897633;29;20059;-61
2022/10/14 08:18:57;;;;;;;9.35;5.72;;;;;;;;;;4898030;29;20111;-62
2022/10/14 08:21:25;;;;;;;9.18;5.72;;;;;;;;;;4898597;29;20052;-62
2022/10/14 08:23:52;;;;;;;7.80;5.70;;;;;;;;;;4881278;29;20052;-61
2022/10/14 08:26:21;;;;;;;8.73;5.22;;;;;;;;;;4882046;29;20461;-62
2022/10/14 08:28:48;;;;;;;7.43;5.53;;;;;;;;;;4897162;29;20059;-60
2022/10/14 08:31:14;;;;;;;9.18;5.28;;;;;;;;;;4898182;29;20048;-60
2022/10/14 08:33:41;;;;;;;6.25;4.40;;;;;;;;;;4897753;29;20093;-61
2022/10/14 08:36:07;;;;;;;7.25;4.78;;;;;;;;;;4897089;29;20054;-61
2022/10/14 08:38:35;;;;;;;7.70;4.82;;;;;;;;;;4897284;29;20143;-60
2022/10/14 08:41:12;;;;;;;6.82;4.72;;;;;;;;;;4897354;29;20470;-61
2022/10/14 08:43:40;;;;;;;9.48;5.47;;;;;;;;;;4898275;29;20041;-61
2022/10/14 08:46:25;;;;;;;6.78;5.20;;;;;;;;;;4898455;29;20065;-61
2022/10/14 08:48:58;;;;;;;6.22;4.20;;;;;;;;;;4898243;29;20052;-61
2022/10/14 08:51:26;;;;;;;5.90;4.82;;;;;;;;;;4898209;29;20100;-61
2022/10/14 08:53:57;;;;;;;8.23;5.20;;;;;;;;;;4880923;29;20053;-61
2022/10/14 08:56:24;;;;;;;13.18;5.22;;;;;;;;;;4896883;29;20100;-62
2022/10/14 08:58:52;;;;;;;9.52;4.95;;;;;;;;;;4896530;29;20053;-61
2022/10/14 09:01:24;;;;;;;6.07;4.90;;;;;;;;;;4897581;29;20472;-62
2022/10/14 09:03:51;;;;;;;5.68;5.13;;;;;;;;;;4896218;29;20048;-62
2022/10/14 09:06:18;;;;;;;5.80;3.92;;;;;;;;;;4896657;29;20044;-62
2022/10/14 09:08:46;;;;;;;6.45;4.78;;;;;;;;;;4896726;29;20053;-61
2022/10/14 09:11:17;;;;;;;7.68;5.18;;;;;;;;;;4897554;29;20048;-62
2022/10/14 09:13:51;;;;;;;9.90;5.20;;;;;;;;;;4897120;29;20051;-62
2022/10/14 09:16:19;;;;;;;6.30;5.13;;;;;;;;;;4896360;29;20494;-62
2022/10/14 09:19:07;;;;;;;7.85;5.35;;;;;;;;;;4896190;29;20049;-62
2022/10/14 09:21:38;;;;;;;13.13;7.43;;;;;;;;;;4893957;29;20138;-62
2022/10/14 09:24:19;;;;;;;10.32;5.60;;;;;;;;;;4881591;29;20045;-62
2022/10/14 09:26:47;;;;;;;7.63;5.28;;;;;;;;;;4896330;29;20161;-61
2022/10/14 09:29:24;;;;;;;10.10;5.88;;;;;;;;;;4896071;29;20052;-61
2022/10/14 09:31:52;;;;;;;5.10;4.40;;;;;;;;;;4896195;29;20064;-62
2022/10/14 09:34:23;;;;;;;5.53;3.90;;;;;;;;;;4896714;29;20119;-62
2022/10/14 09:36:50;;;;;;;8.02;3.85;;;;;;;;;;4897222;29;20041;-62
2022/10/14 09:39:18;;;;;;;6.72;4.15;;;;;;;;;;4896032;29;20047;-62
2022/10/14 09:41:48;;;;;;;8.38;4.40;;;;;;;;;;4895852;29;20051;-62
2022/10/14 09:44:20;;;;;;;7.50;4.68;;;;;;;;;;4896231;29;20053;-62
2022/10/14 09:46:47;;;;;;;5.75;4.13;;;;;;;;;;4880431;29;20056;-62
2022/10/14 09:49:15;;;;;;;7.75;4.50;;;;;;;;;;4895927;29;20056;-62
2022/10/14 09:51:42;;;;;;;7.18;4.30;;;;;;;;;;4880430;29;20052;-62
2022/10/14 09:54:19;;;;;;;7.40;4.10;;;;;;;;;;4896911;29;20445;-62
2022/10/14 09:56:47;;;;;;;7.35;4.85;;;;;;;;;;4896086;29;20523;-62
2022/10/14 09:59:16;;;;;;;6.38;4.53;;;;;;;;;;4895819;29;20052;-61
2022/10/14 10:01:50;;;;;;;5.97;4.60;;;;;;;;;;4895846;29;20096;-61
2022/10/14 10:04:40;;;;;;;5.53;4.60;;;;;;;;;;4880230;29;20068;-61
2022/10/14 10:07:25;;;;;;;6.30;3.90;;;;;;;;;;4895789;29;20052;-61
2022/10/14 10:09:55;;;;;;;5.93;4.53;;;;;;;;;;4881027;29;20068;-62
2022/10/14 10:12:24;;;;;;;8.90;3.72;;;;;;;;;;4896391;29;20565;-62
2022/10/14 10:14:58;;;;;;;5.05;3.72;;;;;;;;;;4896969;29;20045;-62
2022/10/14 10:17:26;;;;;;;6.82;4.68;;;;;;;;;;4880557;29;20048;-61
2022/10/14 10:20:05;;;;;;;6.65;4.03;;;;;;;;;;4895687;29;20049;-62
2022/10/14 10:22:35;;;;;;;5.72;3.13;;;;;;;;;;4896779;29;20041;-62
2022/10/14 10:25:02;;;;;;;7.25;3.20;;;;;;;;;;4896040;29;20045;-60
2022/10/14 10:27:29;;;;;;;7.13;3.20;;;;;;;;;;4896919;29;20049;-60
2022/10/14 10:29:55;;;;;;;6.40;3.35;;;;;;;;;;4896955;29;20548;-61
2022/10/14 10:32:32;;;;;;;5.00;3.10;;;;;;;;;;4895049;29;20084;-60
2022/10/14 10:35:07;;;;;;;5.07;3.08;;;;;;;;;;4896717;29;20116;-61
2022/10/14 10:37:49;;;;;;;4.65;2.90;;;;;;;;;;4896900;29;20044;-60
2022/10/14 10:40:15;;;;;;;6.10;3.50;;;;;;;;;;4895869;29;20049;-59
2022/10/14 10:42:42;;;;;;;5.63;3.38;;;;;;;;;;4895926;29;20048;-60
2022/10/14 10:45:27;;;;;;;4.15;3.40;;;;;;;;;;4898974;29;20048;-60
2022/10/14 10:48:00;;;;;;;5.68;3.33;;;;;;;;;;4897187;29;20056;-59
2022/10/14 10:50:34;;;;;;;5.05;3.10;;;;;;;;;;4897744;29;20037;-59
2022/10/14 10:53:03;;;;;;;6.38;3.30;;;;;;;;;;4896572;29;20417;-60
2022/10/14 10:55:36;;;;;;;3.35;2.90;;;;;;;;;;4897827;29;20512;-59
2022/10/14 10:58:16;;;;;;;4.15;3.20;;;;;;;;;;4900529;29;20036;-60
2022/10/14 11:00:48;;;;;;;2.80;2.33;;;;;;;;;;4898887;29;20048;-59
2022/10/14 11:03:21;;;;;;;6.63;4.70;;;;;;;;;;4898620;29;20096;-59
2022/10/14 11:05:51;;;;;;;8.20;4.80;;;;;;;;;;4901154;29;20120;-60
2022/10/14 11:14:25;;;;;;;4.68;3.40;;;;;;;;;;4901212;29;20041;-62
2022/10/14 11:17:01;;;;;;;3.40;3.05;;;;;;;;;;4900275;29;20048;-61
2022/10/14 11:19:49;;;;;;;2.83;2.58;;;;;;;;;;4899384;29;20131;-61
2022/10/14 11:22:29;;;;;;;5.22;3.05;;;;;;;;;;4899980;29;20040;-62
2022/10/14 11:24:57;;;;;;;6.20;3.33;;;;;;;;;;4901003;29;20040;-62
2022/10/14 11:27:32;;;;;;;3.10;2.80;;;;;;;;;;4900847;29;20117;-62
2022/10/14 11:30:01;;;;;;;3.95;3.00;;;;;;;;;;4901320;29;20052;-61
2022/10/14 11:32:47;;;;;;;4.15;2.50;;;;;;;;;;4904314;29;20052;-61
2022/10/14 11:35:23;;;;;;;4.18;3.15;;;;;;;;;;4904019;29;20119;-61
2022/10/14 11:37:58;;;;;;;2.90;2.63;;;;;;;;;;4901011;29;20153;-60
2022/10/14 11:40:27;;;;;;;5.53;3.22;;;;;;;;;;4899509;29;20382;-61
2022/10/14 11:43:17;;;;;;;6.20;2.88;;;;;;;;;;4899056;29;20045;-61
2022/10/14 11:45:45;;;;;;;5.53;3.20;;;;;;;;;;4898276;29;20401;-60
2022/10/14 11:48:41;;;;;;;5.10;3.03;;;;;;;;;;4899922;29;20049;-60
2022/10/14 11:51:11;;;;;;;4.32;2.70;;;;;;;;;;4895459;29;20060;-67
2022/10/14 11:53:45;;;;;;;5.20;3.28;;;;;;;;;;4898811;29;20049;-62
2022/10/14 11:56:32;;;;;;;5.10;2.92;;;;;;;;;;4900113;29;20426;-62
2022/10/14 11:59:02;;;;;;;4.50;2.45;;;;;;;;;;4895690;29;20056;-62
2022/10/14 12:01:30;;;;;;;3.83;2.90;;;;;;;;;;4899013;29;20040;-62
2022/10/14 12:04:09;;;;;;;4.32;3.90;;;;;;;;;;4898571;29;20053;-62
2022/10/14 12:06:47;;;;;;;9.38;3.38;;;;;;;;;;4898403;29;20100;-62
2022/10/14 12:09:16;;;;;;;3.10;2.80;;;;;;;;;;4897588;29;20052;-62
2022/10/14 12:11:45;;;;;;;4.20;3.30;;;;;;;;;;4898556;29;20108;-62
2022/10/14 12:14:15;;;;;;;3.90;3.10;;;;;;;;;;4898428;29;20049;-61
2022/10/14 12:16:43;;;;;;;4.65;3.22;;;;;;;;;;4898652;29;20048;-62
2022/10/14 12:19:11;;;;;;;3.92;2.72;;;;;;;;;;4897194;29;20051;-62
2022/10/14 12:21:42;;;;;;;3.72;2.92;;;;;;;;;;4898731;29;20096;-62
2022/10/14 12:24:19;;;;;;;3.30;2.85;;;;;;;;;;4897969;29;20032;-61
2022/10/14 12:26:53;;;;;;;4.35;3.00;;;;;;;;;;4898945;29;20048;-62
2022/10/14 12:29:40;;;;;;;3.78;2.88;;;;;;;;;;4898506;29;20104;-61
2022/10/14 12:32:20;;;;;;;4.47;3.40;;;;;;;;;;4897348;29;20112;-61
2022/10/14 12:34:48;;;;;;;3.35;2.50;;;;;;;;;;4897139;29;20076;-61
2022/10/14 12:37:30;;;;;;;3.28;2.97;;;;;;;;;;4898364;29;20413;-61
2022/10/14 12:40:01;;;;;;;3.38;3.08;;;;;;;;;;4897167;29;20083;-63
2022/10/14 12:42:47;;;;;;;3.90;2.80;;;;;;;;;;4897520;29;20041;-61
2022/10/14 12:45:15;;;;;;;2.60;2.40;;;;;;;;;;4893489;29;20052;-61
2022/10/14 12:47:42;;;;;;;3.60;2.35;;;;;;;;;;4898157;29;20103;-61
2022/10/14 12:50:12;;;;;;;2.42;2.22;;;;;;;;;;4897056;29;20053;-61
2022/10/14 12:52:39;;;;;;;2.58;2.35;;;;;;;;;;4896245;29;20045;-61
2022/10/14 12:55:14;;;;;;;2.25;2.05;;;;;;;;;;4897969;29;20505;-61
2022/10/14 12:57:41;;;;;;;4.93;2.42;;;;;;;;;;4881531;29;20056;-62
2022/10/14 13:00:31;;;;;;;2.40;2.20;;;;;;;;;;4897805;29;20040;-63
2022/10/14 13:03:01;;;;;;;2.38;2.17;;;;;;;;;;4894746;29;20059;-62
2022/10/14 13:05:33;;;;;;;3.67;2.55;;;;;;;;;;4898564;29;20498;-62
2022/10/14 13:08:18;;;;;;;5.05;2.60;;;;;;;;;;4897913;29;20048;-62
2022/10/14 13:10:51;;;;;;;2.92;2.60;;;;;;;;;;4897760;29;20509;-61
2022/10/14 13:13:37;;;;;;;2.28;2.08;;;;;;;;;;4896252;29;20509;-61
2022/10/14 13:16:04;;;;;;;16.45;7.65;;;;;;;;;;4897513;29;20041;-61
2022/10/14 13:18:30;;;;;;;4.90;3.67;;;;;;;;;;4895918;29;20048;-61
2022/10/14 13:20:56;;;;;;;11.70;9.07;;;;;;;;;;4896430;29;20465;-62
2022/10/14 13:23:29;;;;;;;4.47;3.15;;;;;;;;;;4896861;29;20199;-61
2022/10/14 13:26:18;;;;;;;2.58;2.33;;;;;;;;;;4896597;29;20044;-61
2022/10/14 13:29:08;;;;;;;4.05;3.38;;;;;;;;;;4877667;29;20104;-61
2022/10/14 13:31:38;;;;;;;2.85;2.55;;;;;;;;;;4897892;29;20084;-61
2022/10/14 13:34:23;;;;;;;2.78;1.90;;;;;;;;;;4897266;29;20048;-61
2022/10/14 13:36:55;;;;;;;1.83;1.65;;;;;;;;;;4897439;29;20497;-62
2022/10/14 13:39:22;;;;;;;2.90;1.70;;;;;;;;;;4897427;29;20055;-63
2022/10/14 13:41:49;;;;;;;3.33;2.40;;;;;;;;;;4897690;29;20489;-61
2022/10/14 13:44:20;;;;;;;4.18;2.38;;;;;;;;;;4897290;29;20509;-61
2022/10/14 13:46:48;;;;;;;3.08;2.35;;;;;;;;;;4896570;29;20041;-61
2022/10/14 13:49:26;;;;;;;2.38;2.10;;;;;;;;;;4897563;29;20048;-62
2022/10/14 13:51:58;;;;;;;3.78;2.90;;;;;;;;;;4900243;29;20045;-62
2022/10/14 13:54:29;;;;;;;2.67;2.17;;;;;;;;;;4900037;29;20049;-62
2022/10/14 13:56:57;;;;;;;2.72;2.17;;;;;;;;;;4898943;29;20044;-62
2022/10/14 13:59:45;;;;;;;5.57;3.50;;;;;;;;;;4897360;29;20045;-61
2022/10/14 14:02:37;;;;;;;4.75;2.95;;;;;;;;;;4896469;29;20053;-60
2022/10/14 14:05:04;;;;;;;5.57;2.10;;;;;;;;;;4895767;29;20561;-61
2022/10/14 14:07:33;;;;;;;2.83;1.50;;;;;;;;;;4897098;29;20562;-60
2022/10/14 14:10:21;;;;;;;3.20;1.90;;;;;;;;;;4897484;29;20128;-62
2022/10/14 14:12:48;;;;;;;2.40;1.90;;;;;;;;;;4896538;29;20449;-61
2022/10/14 14:15:21;;;;;;;2.75;2.08;;;;;;;;;;4896841;29;20079;-61
2022/10/14 14:17:48;;;;;;;3.23;2.50;;;;;;;;;;4897615;29;20041;-61
2022/10/14 14:20:18;;;;;;;2.72;2.40;;;;;;;;;;4896166;29;20251;-61
2022/10/14 14:22:45;;;;;;;4.07;2.50;;;;;;;;;;4897081;29;20517;-61
2022/10/14 14:25:11;;;;;;;5.10;4.47;;;;;;;;;;4898066;29;20045;-61
2022/10/14 14:28:04;;;;;;;3.25;2.92;;;;;;;;;;4897269;29;20078;-62
2022/10/14 14:30:32;;;;;;;2.97;2.50;;;;;;;;;;4900266;29;20096;-61
2022/10/14 14:33:03;;;;;;;6.20;5.22;;;;;;;;;;4899566;29;20048;-61
2022/10/14 14:35:30;;;;;;;6.32;5.45;;;;;;;;;;4901005;29;20060;-62
2022/10/14 14:37:56;;;;;;;9.15;5.57;;;;;;;;;;4900821;29;20044;-61
2022/10/14 14:40:25;;;;;;;6.20;4.28;;;;;;;;;;4883758;29;20101;-62
2022/10/14 14:42:57;;;;;;;4.38;3.47;;;;;;;;;;4900044;29;20152;-61
2022/10/14 14:45:26;;;;;;;3.90;3.50;;;;;;;;;;4901322;29;20080;-62
2022/10/14 14:47:54;;;;;;;3.53;3.20;;;;;;;;;;4899303;29;20493;-62
2022/10/14 14:50:35;;;;;;;5.10;2.83;;;;;;;;;;4900164;29;20048;-60
2022/10/14 14:53:05;;;;;;;2.33;2.13;;;;;;;;;;4899508;29;20109;-62
2022/10/14 14:55:31;;;;;;;3.00;2.47;;;;;;;;;;4900736;29;20044;-61
2022/10/14 14:57:59;;;;;;;4.22;3.22;;;;;;;;;;4902356;29;20048;-62